Aérodrome :
LOGIN :

S'inscrire | Disclaimer

   EN    FR    IT 

 










Légende :    VFR   VFR Marginal   IFR   IFR Intensif   IFR Très Intensif
Visi : 
Plafond : 
>= 8 km
>= 3000ft
5 à 8 km
1000 à 3000 ft
1500m à 5 km
500 à 1000 ft
800 à 1500m
200 à 500 ft
< 800m
< 200 ft
Symboles :   Orages  Brouillard  Fortes neiges  Fortes précipitations  Vent > 20 kt
SIGMETs :   Divers  Orages  Givrage  Turbulence  Onde Orograph.  Cendres Volcan.






- Altitude de l'aérodrome : 147 ft
- Code IATA : DUS


EDDL - Düsseldorf Int.

METARs EXPIRÉS :
  • 090450Z AUTO 22004KT 9999 BKN016 01/M00 Q1006 TEMPO BKN012
  • 091850Z AUTO VRB02KT 9999 OVC026 M00/M01 Q1007 NOSIG
  • 091820Z AUTO 07002KT 9999 BKN026 M00/M01 Q1006 NOSIG
  • 091750Z AUTO 07003KT 9999 OVC024 M01/M01 Q1006 NOSIG
  • 091720Z AUTO 09003KT 9999 BKN021 OVC026 M02/M02 Q1006 NOSIG
  • 091650Z AUTO 31002KT 9999 FEW026 M01/M02 Q1006 NOSIG
  • 091620Z AUTO 34002KT CAVOK M00/M02 Q1006 NOSIG

TAF TAF EDDL
Valide du 09 à 18h jusqu'au 11 à 00h UTC


091700Z 0918/1024 VRB03KT 9999 SCT025
PROB30
TEMPO 0918/0921 BKN008
TEMPO 1003/1011 3000 BR BKN010
PROB30
TEMPO 1005/1008 1200 BCFG
BECMG 1011/1013 BKN008
PROB30
TEMPO 1011/1017 4000 BR
BECMG 1017/1020 3000 BR



MET'MAP, la Météo Aéronautique d'un coup d'oeil ! - Copyright ORBIFLY Décembre 2007 - Disclaimer

ORBIFLY MET'MAP TEAM :

Programmation & Développement : Alexandra Zaïnal
Sur une idée originale de : Baudouin d'Aumeries
Soutien technique & logistique : Manuel Goepfert
Assistance : Marc-Olivier Méhu




SOURCES & CREDITS :

   NOAA